sensor_id;sensor_type;location;lat;lon;timestamp;P1;durP1;ratioP1;P2;durP2;ratioP2
47790;SDS011;33547;49.044;1.156;2022-09-03T00:02:35;2.13;;;2.00;;
47790;SDS011;33547;49.044;1.156;2022-09-03T00:11:00;2.30;;;2.10;;
47790;SDS011;33547;49.044;1.156;2022-09-03T00:13:44;2.00;;;1.90;;
47790;SDS011;33547;49.044;1.156;2022-09-03T00:16:22;1.95;;;1.85;;
47790;SDS011;33547;49.044;1.156;2022-09-03T00:18:55;1.85;;;1.75;;
47790;SDS011;33547;49.044;1.156;2022-09-03T00:21:38;2.20;;;1.73;;
47790;SDS011;33547;49.044;1.156;2022-09-03T00:24:14;1.90;;;1.77;;
47790;SDS011;33547;49.044;1.156;2022-09-03T00:26:44;2.00;;;1.80;;
47790;SDS011;33547;49.044;1.156;2022-09-03T00:29:19;1.65;;;1.55;;
47790;SDS011;33547;49.044;1.156;2022-09-03T00:31:53;1.83;;;1.73;;
47790;SDS011;33547;49.044;1.156;2022-09-03T00:34:29;2.25;;;1.83;;
47790;SDS011;33547;49.044;1.156;2022-09-03T00:37:04;1.95;;;1.80;;
47790;SDS011;33547;49.044;1.156;2022-09-03T00:39:33;1.92;;;1.80;;
47790;SDS011;33547;49.044;1.156;2022-09-03T01:14:06;2.08;;;1.90;;
47790;SDS011;33547;49.044;1.156;2022-09-03T01:50:25;1.80;;;1.70;;
47790;SDS011;33547;49.044;1.156;2022-09-03T02:07:46;1.73;;;1.63;;
47790;SDS011;33547;49.044;1.156;2022-09-03T02:10:19;2.13;;;1.88;;
47790;SDS011;33547;49.044;1.156;2022-09-03T02:13:22;1.58;;;1.48;;
47790;SDS011;33547;49.044;1.156;2022-09-03T02:16:19;1.90;;;1.70;;
47790;SDS011;33547;49.044;1.156;2022-09-03T02:18:57;1.88;;;1.70;;
47790;SDS011;33547;49.044;1.156;2022-09-03T02:21:27;1.90;;;1.80;;
47790;SDS011;33547;49.044;1.156;2022-09-03T02:24:03;3.53;;;1.95;;
47790;SDS011;33547;49.044;1.156;2022-09-03T02:26:30;1.70;;;1.60;;
47790;SDS011;33547;49.044;1.156;2022-09-03T02:28:56;1.60;;;1.60;;
47790;SDS011;33547;49.044;1.156;2022-09-03T02:31:22;2.00;;;1.90;;
47790;SDS011;33547;49.044;1.156;2022-09-03T02:33:50;2.55;;;1.88;;
47790;SDS011;33547;49.044;1.156;2022-09-03T02:36:17;2.10;;;2.00;;
47790;SDS011;33547;49.044;1.156;2022-09-03T02:38:49;1.80;;;1.70;;
47790;SDS011;33547;49.044;1.156;2022-09-03T02:41:15;1.85;;;1.75;;
47790;SDS011;33547;49.044;1.156;2022-09-03T02:46:22;1.90;;;1.80;;
47790;SDS011;33547;49.044;1.156;2022-09-03T02:48:53;1.88;;;1.77;;
47790;SDS011;33547;49.044;1.156;2022-09-03T02:51:20;1.52;;;1.50;;
47790;SDS011;33547;49.044;1.156;2022-09-03T02:53:46;1.50;;;1.40;;
47790;SDS011;33547;49.044;1.156;2022-09-03T02:56:12;2.03;;;1.92;;
47790;SDS011;33547;49.044;1.156;2022-09-03T02:58:38;1.95;;;1.85;;
47790;SDS011;33547;49.044;1.156;2022-09-03T03:01:03;1.90;;;1.80;;
47790;SDS011;33547;49.044;1.156;2022-09-03T03:03:30;1.95;;;1.85;;
47790;SDS011;33547;49.044;1.156;2022-09-03T03:05:56;1.80;;;1.70;;
47790;SDS011;33547;49.044;1.156;2022-09-03T03:08:26;2.40;;;1.70;;
47790;SDS011;33547;49.044;1.156;2022-09-03T03:10:56;2.20;;;2.10;;
47790;SDS011;33547;49.044;1.156;2022-09-03T03:13:25;1.85;;;1.75;;
47790;SDS011;33547;49.044;1.156;2022-09-03T03:15:56;2.35;;;2.15;;
47790;SDS011;33547;49.044;1.156;2022-09-03T03:18:27;1.80;;;1.70;;
47790;SDS011;33547;49.044;1.156;2022-09-03T03:20:53;2.95;;;1.90;;
47790;SDS011;33547;49.044;1.156;2022-09-03T03:23:19;1.85;;;1.75;;
47790;SDS011;33547;49.044;1.156;2022-09-03T03:25:45;1.55;;;1.45;;
47790;SDS011;33547;49.044;1.156;2022-09-03T03:28:12;1.50;;;1.40;;
47790;SDS011;33547;49.044;1.156;2022-09-03T03:30:39;2.22;;;2.13;;
47790;SDS011;33547;49.044;1.156;2022-09-03T03:33:06;1.98;;;1.88;;
47790;SDS011;33547;49.044;1.156;2022-09-03T03:35:35;1.85;;;1.75;;
47790;SDS011;33547;49.044;1.156;2022-09-03T03:38:01;1.73;;;1.63;;
47790;SDS011;33547;49.044;1.156;2022-09-03T03:40:28;2.05;;;1.95;;
47790;SDS011;33547;49.044;1.156;2022-09-03T03:42:56;1.98;;;1.88;;
47790;SDS011;33547;49.044;1.156;2022-09-03T03:45:22;1.73;;;1.63;;
47790;SDS011;33547;49.044;1.156;2022-09-03T03:47:48;1.88;;;1.77;;
47790;SDS011;33547;49.044;1.156;2022-09-03T03:50:14;1.70;;;1.60;;
47790;SDS011;33547;49.044;1.156;2022-09-03T03:52:40;1.80;;;1.70;;
47790;SDS011;33547;49.044;1.156;2022-09-03T03:55:07;1.63;;;1.52;;
47790;SDS011;33547;49.044;1.156;2022-09-03T03:57:33;1.98;;;1.88;;
47790;SDS011;33547;49.044;1.156;2022-09-03T03:59:58;2.10;;;2.00;;
47790;SDS011;33547;49.044;1.156;2022-09-03T04:02:24;1.98;;;1.88;;
47790;SDS011;33547;49.044;1.156;2022-09-03T04:04:50;1.52;;;1.52;;
47790;SDS011;33547;49.044;1.156;2022-09-03T04:07:16;2.35;;;1.77;;
47790;SDS011;33547;49.044;1.156;2022-09-03T04:09:42;1.80;;;1.70;;
47790;SDS011;33547;49.044;1.156;2022-09-03T04:12:07;2.00;;;1.73;;
47790;SDS011;33547;49.044;1.156;2022-09-03T04:14:34;1.48;;;1.38;;
47790;SDS011;33547;49.044;1.156;2022-09-03T04:17:00;1.80;;;1.70;;
47790;SDS011;33547;49.044;1.156;2022-09-03T04:19:27;1.77;;;1.67;;
47790;SDS011;33547;49.044;1.156;2022-09-03T04:21:54;1.67;;;1.58;;
47790;SDS011;33547;49.044;1.156;2022-09-03T04:24:20;1.92;;;1.42;;
47790;SDS011;33547;49.044;1.156;2022-09-03T04:26:46;1.90;;;1.80;;
47790;SDS011;33547;49.044;1.156;2022-09-03T04:29:14;2.00;;;1.67;;
47790;SDS011;33547;49.044;1.156;2022-09-03T04:31:40;1.70;;;1.60;;
47790;SDS011;33547;49.044;1.156;2022-09-03T04:34:29;1.60;;;1.50;;
47790;SDS011;33547;49.044;1.156;2022-09-03T04:36:55;1.75;;;1.65;;
47790;SDS011;33547;49.044;1.156;2022-09-03T04:39:24;1.55;;;1.45;;
47790;SDS011;33547;49.044;1.156;2022-09-03T04:41:50;1.67;;;1.58;;
47790;SDS011;33547;49.044;1.156;2022-09-03T04:44:15;1.85;;;1.75;;
47790;SDS011;33547;49.044;1.156;2022-09-03T04:46:41;1.60;;;1.50;;
47790;SDS011;33547;49.044;1.156;2022-09-03T04:49:08;1.63;;;1.50;;
47790;SDS011;33547;49.044;1.156;2022-09-03T04:51:34;1.60;;;1.50;;
47790;SDS011;33547;49.044;1.156;2022-09-03T04:54:02;2.08;;;1.98;;
47790;SDS011;33547;49.044;1.156;2022-09-03T04:56:29;2.50;;;1.85;;
47790;SDS011;33547;49.044;1.156;2022-09-03T04:58:58;2.10;;;2.00;;
47790;SDS011;33547;49.044;1.156;2022-09-03T05:01:27;1.70;;;1.60;;
47790;SDS011;33547;49.044;1.156;2022-09-03T05:03:55;1.90;;;1.80;;
47790;SDS011;33547;49.044;1.156;2022-09-03T05:06:22;1.80;;;1.70;;
47790;SDS011;33547;49.044;1.156;2022-09-03T05:08:50;1.98;;;1.88;;
47790;SDS011;33547;49.044;1.156;2022-09-03T05:11:18;1.90;;;1.80;;
47790;SDS011;33547;49.044;1.156;2022-09-03T05:13:47;1.80;;;1.70;;
47790;SDS011;33547;49.044;1.156;2022-09-03T05:16:16;1.77;;;1.67;;
47790;SDS011;33547;49.044;1.156;2022-09-03T05:18:43;2.03;;;1.83;;
47790;SDS011;33547;49.044;1.156;2022-09-03T05:21:10;1.70;;;1.60;;
47790;SDS011;33547;49.044;1.156;2022-09-03T05:23:42;1.73;;;1.63;;
47790;SDS011;33547;49.044;1.156;2022-09-03T05:26:14;1.85;;;1.75;;
47790;SDS011;33547;49.044;1.156;2022-09-03T05:29:02;1.70;;;1.60;;
47790;SDS011;33547;49.044;1.156;2022-09-03T05:31:34;1.70;;;1.60;;
47790;SDS011;33547;49.044;1.156;2022-09-03T05:34:03;2.40;;;1.70;;
47790;SDS011;33547;49.044;1.156;2022-09-03T05:36:31;1.88;;;1.70;;
47790;SDS011;33547;49.044;1.156;2022-09-03T05:38:59;1.80;;;1.70;;
47790;SDS011;33547;49.044;1.156;2022-09-03T05:41:26;1.83;;;1.73;;
47790;SDS011;33547;49.044;1.156;2022-09-03T05:43:53;1.77;;;1.67;;
47790;SDS011;33547;49.044;1.156;2022-09-03T05:46:23;1.48;;;1.38;;
47790;SDS011;33547;49.044;1.156;2022-09-03T05:48:55;1.77;;;1.63;;
47790;SDS011;33547;49.044;1.156;2022-09-03T05:51:23;6.80;;;1.85;;
47790;SDS011;33547;49.044;1.156;2022-09-03T05:53:49;1.35;;;1.35;;
47790;SDS011;33547;49.044;1.156;2022-09-03T05:56:18;1.70;;;1.60;;
47790;SDS011;33547;49.044;1.156;2022-09-03T05:58:46;2.28;;;1.70;;
47790;SDS011;33547;49.044;1.156;2022-09-03T06:01:22;1.65;;;1.55;;
47790;SDS011;33547;49.044;1.156;2022-09-03T06:03:54;2.03;;;1.92;;
47790;SDS011;33547;49.044;1.156;2022-09-03T06:06:34;1.75;;;1.65;;
47790;SDS011;33547;49.044;1.156;2022-09-03T06:09:09;1.45;;;1.45;;
47790;SDS011;33547;49.044;1.156;2022-09-03T06:11:48;1.92;;;1.83;;
47790;SDS011;33547;49.044;1.156;2022-09-03T06:14:14;2.13;;;2.03;;
47790;SDS011;33547;49.044;1.156;2022-09-03T06:16:43;1.60;;;1.50;;
47790;SDS011;33547;49.044;1.156;2022-09-03T06:19:16;2.85;;;2.30;;
47790;SDS011;33547;49.044;1.156;2022-09-03T06:21:43;2.92;;;2.65;;
47790;SDS011;33547;49.044;1.156;2022-09-03T06:24:17;3.03;;;2.72;;
47790;SDS011;33547;49.044;1.156;2022-09-03T06:26:47;3.03;;;2.40;;
47790;SDS011;33547;49.044;1.156;2022-09-03T06:29:13;3.35;;;2.92;;
47790;SDS011;33547;49.044;1.156;2022-09-03T06:31:39;3.28;;;3.08;;
47790;SDS011;33547;49.044;1.156;2022-09-03T06:34:05;4.32;;;3.58;;
47790;SDS011;33547;49.044;1.156;2022-09-03T06:36:31;3.25;;;2.97;;
47790;SDS011;33547;49.044;1.156;2022-09-03T06:38:57;3.38;;;3.08;;
47790;SDS011;33547;49.044;1.156;2022-09-03T06:41:27;3.10;;;2.78;;
47790;SDS011;33547;49.044;1.156;2022-09-03T06:43:58;3.55;;;3.28;;
47790;SDS011;33547;49.044;1.156;2022-09-03T06:46:31;2.80;;;2.60;;
47790;SDS011;33547;49.044;1.156;2022-09-03T06:48:59;5.45;;;3.22;;
47790;SDS011;33547;49.044;1.156;2022-09-03T06:51:26;3.72;;;3.17;;
47790;SDS011;33547;49.044;1.156;2022-09-03T06:53:58;3.42;;;2.90;;
47790;SDS011;33547;49.044;1.156;2022-09-03T06:56:27;3.63;;;3.42;;
47790;SDS011;33547;49.044;1.156;2022-09-03T06:58:54;4.63;;;3.30;;
47790;SDS011;33547;49.044;1.156;2022-09-03T07:01:25;5.38;;;3.20;;
47790;SDS011;33547;49.044;1.156;2022-09-03T07:03:55;3.75;;;3.15;;
47790;SDS011;33547;49.044;1.156;2022-09-03T07:06:27;3.75;;;3.45;;
47790;SDS011;33547;49.044;1.156;2022-09-03T07:08:56;3.55;;;3.25;;
47790;SDS011;33547;49.044;1.156;2022-09-03T07:11:24;2.83;;;2.63;;
47790;SDS011;33547;49.044;1.156;2022-09-03T07:13:53;7.72;;;3.03;;
47790;SDS011;33547;49.044;1.156;2022-09-03T07:16:21;3.38;;;2.80;;
47790;SDS011;33547;49.044;1.156;2022-09-03T07:18:50;3.40;;;3.05;;
47790;SDS011;33547;49.044;1.156;2022-09-03T07:21:20;4.65;;;2.65;;
47790;SDS011;33547;49.044;1.156;2022-09-03T07:23:49;3.05;;;2.80;;
47790;SDS011;33547;49.044;1.156;2022-09-03T07:26:17;4.72;;;2.83;;
47790;SDS011;33547;49.044;1.156;2022-09-03T07:28:49;3.60;;;2.70;;
47790;SDS011;33547;49.044;1.156;2022-09-03T07:31:16;3.00;;;2.78;;
47790;SDS011;33547;49.044;1.156;2022-09-03T07:33:57;3.90;;;2.80;;
47790;SDS011;33547;49.044;1.156;2022-09-03T07:36:26;4.82;;;3.05;;
47790;SDS011;33547;49.044;1.156;2022-09-03T07:38:54;2.78;;;2.58;;
47790;SDS011;33547;49.044;1.156;2022-09-03T07:41:22;3.95;;;2.70;;
47790;SDS011;33547;49.044;1.156;2022-09-03T07:43:50;2.85;;;2.45;;
47790;SDS011;33547;49.044;1.156;2022-09-03T07:46:25;3.17;;;2.40;;
47790;SDS011;33547;49.044;1.156;2022-09-03T07:48:55;2.95;;;2.30;;
47790;SDS011;33547;49.044;1.156;2022-09-03T07:51:24;2.45;;;2.25;;
47790;SDS011;33547;49.044;1.156;2022-09-03T07:53:55;4.68;;;2.72;;
47790;SDS011;33547;49.044;1.156;2022-09-03T07:56:24;2.80;;;2.50;;
47790;SDS011;33547;49.044;1.156;2022-09-03T07:58:51;3.00;;;2.75;;
47790;SDS011;33547;49.044;1.156;2022-09-03T08:01:20;2.47;;;2.28;;
47790;SDS011;33547;49.044;1.156;2022-09-03T08:03:48;6.20;;;2.65;;
47790;SDS011;33547;49.044;1.156;2022-09-03T08:06:17;2.90;;;2.30;;
47790;SDS011;33547;49.044;1.156;2022-09-03T08:08:46;3.03;;;2.60;;
47790;SDS011;33547;49.044;1.156;2022-09-03T08:11:13;3.42;;;2.83;;
47790;SDS011;33547;49.044;1.156;2022-09-03T08:13:43;2.60;;;2.40;;
47790;SDS011;33547;49.044;1.156;2022-09-03T08:16:17;2.83;;;2.35;;
47790;SDS011;33547;49.044;1.156;2022-09-03T08:18:43;2.33;;;1.77;;
47790;SDS011;33547;49.044;1.156;2022-09-03T08:21:15;2.30;;;2.10;;
47790;SDS011;33547;49.044;1.156;2022-09-03T08:23:44;2.33;;;1.92;;
47790;SDS011;33547;49.044;1.156;2022-09-03T08:26:15;2.67;;;2.10;;
47790;SDS011;33547;49.044;1.156;2022-09-03T08:28:43;3.03;;;2.00;;
47790;SDS011;33547;49.044;1.156;2022-09-03T08:31:13;2.33;;;2.13;;
47790;SDS011;33547;49.044;1.156;2022-09-03T08:33:47;2.35;;;2.10;;
47790;SDS011;33547;49.044;1.156;2022-09-03T08:36:19;1.90;;;1.80;;
47790;SDS011;33547;49.044;1.156;2022-09-03T08:38:51;2.35;;;2.20;;
47790;SDS011;33547;49.044;1.156;2022-09-03T08:47:17;2.67;;;2.10;;
47790;SDS011;33547;49.044;1.156;2022-09-03T08:55:33;2.92;;;2.20;;
47790;SDS011;33547;49.044;1.156;2022-09-03T08:58:09;2.38;;;2.03;;
47790;SDS011;33547;49.044;1.156;2022-09-03T09:15:11;3.38;;;2.10;;
47790;SDS011;33547;49.044;1.156;2022-09-03T09:23:37;2.03;;;1.92;;
47790;SDS011;33547;49.044;1.156;2022-09-03T09:26:09;2.30;;;1.70;;
47790;SDS011;33547;49.044;1.156;2022-09-03T09:28:40;1.90;;;1.80;;
47790;SDS011;33547;49.044;1.156;2022-09-03T09:31:13;2.20;;;1.95;;
47790;SDS011;33547;49.044;1.156;2022-09-03T09:33:41;1.60;;;1.50;;
47790;SDS011;33547;49.044;1.156;2022-09-03T09:36:07;2.42;;;1.60;;
47790;SDS011;33547;49.044;1.156;2022-09-03T09:38:39;2.35;;;1.75;;
47790;SDS011;33547;49.044;1.156;2022-09-03T09:41:10;1.58;;;1.48;;
47790;SDS011;33547;49.044;1.156;2022-09-03T09:43:44;1.95;;;1.80;;
47790;SDS011;33547;49.044;1.156;2022-09-03T09:46:21;1.98;;;1.70;;
47790;SDS011;33547;49.044;1.156;2022-09-03T09:48:50;1.92;;;1.50;;
47790;SDS011;33547;49.044;1.156;2022-09-03T09:51:22;1.85;;;1.75;;
47790;SDS011;33547;49.044;1.156;2022-09-03T09:54:02;2.72;;;1.95;;
47790;SDS011;33547;49.044;1.156;2022-09-03T09:56:38;1.83;;;1.73;;
47790;SDS011;33547;49.044;1.156;2022-09-03T09:59:07;2.42;;;1.90;;
47790;SDS011;33547;49.044;1.156;2022-09-03T10:01:36;1.83;;;1.73;;
47790;SDS011;33547;49.044;1.156;2022-09-03T10:04:12;1.85;;;1.63;;
47790;SDS011;33547;49.044;1.156;2022-09-03T10:06:53;3.15;;;1.88;;
47790;SDS011;33547;49.044;1.156;2022-09-03T10:09:23;2.05;;;1.65;;
47790;SDS011;33547;49.044;1.156;2022-09-03T10:12:08;2.15;;;1.60;;
47790;SDS011;33547;49.044;1.156;2022-09-03T10:14:44;2.00;;;1.50;;
47790;SDS011;33547;49.044;1.156;2022-09-03T10:17:57;1.95;;;1.75;;
47790;SDS011;33547;49.044;1.156;2022-09-03T10:20:37;1.63;;;1.52;;
47790;SDS011;33547;49.044;1.156;2022-09-03T10:23:25;2.67;;;1.77;;
47790;SDS011;33547;49.044;1.156;2022-09-03T10:26:12;1.60;;;1.50;;
47790;SDS011;33547;49.044;1.156;2022-09-03T10:28:43;1.52;;;1.38;;
47790;SDS011;33547;49.044;1.156;2022-09-03T10:34:11;2.63;;;1.70;;
47790;SDS011;33547;49.044;1.156;2022-09-03T10:36:40;1.55;;;1.40;;
47790;SDS011;33547;49.044;1.156;2022-09-03T10:44:56;1.30;;;1.30;;
47790;SDS011;33547;49.044;1.156;2022-09-03T10:47:49;1.98;;;1.88;;
47790;SDS011;33547;49.044;1.156;2022-09-03T10:51:01;2.10;;;1.50;;
47790;SDS011;33547;49.044;1.156;2022-09-03T10:53:41;2.00;;;1.90;;
47790;SDS011;33547;49.044;1.156;2022-09-03T11:04:59;2.83;;;1.70;;
47790;SDS011;33547;49.044;1.156;2022-09-03T11:07:34;2.90;;;1.70;;
47790;SDS011;33547;49.044;1.156;2022-09-03T11:15:35;4.60;;;1.77;;
47790;SDS011;33547;49.044;1.156;2022-09-03T11:18:26;1.63;;;1.50;;
47790;SDS011;33547;49.044;1.156;2022-09-03T11:21:15;6.75;;;1.63;;
47790;SDS011;33547;49.044;1.156;2022-09-03T11:23:47;2.85;;;1.25;;
47790;SDS011;33547;49.044;1.156;2022-09-03T11:26:29;2.75;;;1.52;;
47790;SDS011;33547;49.044;1.156;2022-09-03T11:36:50;1.55;;;1.45;;
47790;SDS011;33547;49.044;1.156;2022-09-03T11:39:21;2.72;;;1.60;;
47790;SDS011;33547;49.044;1.156;2022-09-03T11:42:02;1.60;;;1.40;;
47790;SDS011;33547;49.044;1.156;2022-09-03T11:44:38;2.47;;;1.73;;
47790;SDS011;33547;49.044;1.156;2022-09-03T11:47:20;3.53;;;1.70;;
47790;SDS011;33547;49.044;1.156;2022-09-03T11:49:49;2.63;;;1.85;;
47790;SDS011;33547;49.044;1.156;2022-09-03T11:52:31;2.50;;;1.38;;
47790;SDS011;33547;49.044;1.156;2022-09-03T11:54:57;2.53;;;1.98;;
47790;SDS011;33547;49.044;1.156;2022-09-03T11:57:26;1.80;;;1.60;;
47790;SDS011;33547;49.044;1.156;2022-09-03T12:00:07;5.63;;;1.60;;
47790;SDS011;33547;49.044;1.156;2022-09-03T12:03:00;3.03;;;1.70;;
47790;SDS011;33547;49.044;1.156;2022-09-03T12:11:28;1.48;;;1.10;;
47790;SDS011;33547;49.044;1.156;2022-09-03T12:14:38;1.40;;;1.00;;
47790;SDS011;33547;49.044;1.156;2022-09-03T12:17:29;2.20;;;1.20;;
47790;SDS011;33547;49.044;1.156;2022-09-03T12:20:12;3.33;;;0.95;;
47790;SDS011;33547;49.044;1.156;2022-09-03T12:22:39;1.35;;;1.00;;
47790;SDS011;33547;49.044;1.156;2022-09-03T12:25:07;1.88;;;1.00;;
47790;SDS011;33547;49.044;1.156;2022-09-03T12:27:35;0.82;;;0.82;;
47790;SDS011;33547;49.044;1.156;2022-09-03T12:30:02;1.67;;;1.20;;
47790;SDS011;33547;49.044;1.156;2022-09-03T12:32:31;1.20;;;1.10;;
47790;SDS011;33547;49.044;1.156;2022-09-03T12:35:17;1.67;;;1.58;;
47790;SDS011;33547;49.044;1.156;2022-09-03T12:37:47;1.63;;;1.30;;
47790;SDS011;33547;49.044;1.156;2022-09-03T12:40:26;1.77;;;1.60;;
47790;SDS011;33547;49.044;1.156;2022-09-03T12:42:53;2.25;;;1.70;;
47790;SDS011;33547;49.044;1.156;2022-09-03T12:45:25;2.13;;;1.63;;
47790;SDS011;33547;49.044;1.156;2022-09-03T12:47:51;2.42;;;2.00;;
47790;SDS011;33547;49.044;1.156;2022-09-03T12:50:18;2.47;;;2.08;;
47790;SDS011;33547;49.044;1.156;2022-09-03T12:52:51;2.97;;;2.30;;
47790;SDS011;33547;49.044;1.156;2022-09-03T12:55:27;3.78;;;2.70;;
47790;SDS011;33547;49.044;1.156;2022-09-03T12:57:56;3.08;;;2.65;;
47790;SDS011;33547;49.044;1.156;2022-09-03T13:00:45;2.72;;;2.53;;
47790;SDS011;33547;49.044;1.156;2022-09-03T13:03:31;3.38;;;2.38;;
47790;SDS011;33547;49.044;1.156;2022-09-03T13:06:29;3.00;;;1.92;;
47790;SDS011;33547;49.044;1.156;2022-09-03T13:09:04;2.88;;;1.90;;
47790;SDS011;33547;49.044;1.156;2022-09-03T13:11:33;2.38;;;2.22;;
47790;SDS011;33547;49.044;1.156;2022-09-03T13:14:04;2.40;;;2.20;;
47790;SDS011;33547;49.044;1.156;2022-09-03T13:30:29;2.00;;;1.90;;
47790;SDS011;33547;49.044;1.156;2022-09-03T13:33:43;1.77;;;1.67;;
47790;SDS011;33547;49.044;1.156;2022-09-03T13:36:16;3.30;;;1.60;;
47790;SDS011;33547;49.044;1.156;2022-09-03T13:39:01;1.70;;;1.48;;
47790;SDS011;33547;49.044;1.156;2022-09-03T13:47:11;1.88;;;1.77;;
47790;SDS011;33547;49.044;1.156;2022-09-03T13:52:58;2.50;;;1.90;;
47790;SDS011;33547;49.044;1.156;2022-09-03T13:55:34;2.00;;;1.42;;
47790;SDS011;33547;49.044;1.156;2022-09-03T13:58:27;0.98;;;0.85;;
47790;SDS011;33547;49.044;1.156;2022-09-03T14:04:21;7.97;;;1.52;;
47790;SDS011;33547;49.044;1.156;2022-09-03T14:07:05;11.77;;;2.88;;
47790;SDS011;33547;49.044;1.156;2022-09-03T14:10:00;13.27;;;3.05;;
47790;SDS011;33547;49.044;1.156;2022-09-03T14:12:48;6.03;;;1.58;;
47790;SDS011;33547;49.044;1.156;2022-09-03T14:18:31;2.50;;;1.13;;
47790;SDS011;33547;49.044;1.156;2022-09-03T14:26:57;1.67;;;1.58;;
47790;SDS011;33547;49.044;1.156;2022-09-03T14:29:30;1.45;;;1.42;;
47790;SDS011;33547;49.044;1.156;2022-09-03T14:40:46;1.67;;;1.52;;
47790;SDS011;33547;49.044;1.156;2022-09-03T14:59:06;3.75;;;2.20;;
47790;SDS011;33547;49.044;1.156;2022-09-03T15:10:32;4.15;;;2.00;;
47790;SDS011;33547;49.044;1.156;2022-09-03T15:13:16;2.97;;;2.03;;
47790;SDS011;33547;49.044;1.156;2022-09-03T15:30:17;3.88;;;2.00;;
47790;SDS011;33547;49.044;1.156;2022-09-03T15:38:08;5.85;;;2.58;;
47790;SDS011;33547;49.044;1.156;2022-09-03T15:41:20;5.20;;;2.42;;
47790;SDS011;33547;49.044;1.156;2022-09-03T15:43:58;3.72;;;1.95;;
47790;SDS011;33547;49.044;1.156;2022-09-03T15:46:33;13.18;;;3.33;;
47790;SDS011;33547;49.044;1.156;2022-09-03T15:50:23;6.13;;;2.85;;
47790;SDS011;33547;49.044;1.156;2022-09-03T15:55:00;5.00;;;3.05;;
47790;SDS011;33547;49.044;1.156;2022-09-03T15:58:51;6.68;;;2.55;;
47790;SDS011;33547;49.044;1.156;2022-09-03T16:00:58;7.72;;;2.85;;
47790;SDS011;33547;49.044;1.156;2022-09-03T16:03:36;8.82;;;3.13;;
47790;SDS011;33547;49.044;1.156;2022-09-03T16:09:02;8.70;;;3.17;;
47790;SDS011;33547;49.044;1.156;2022-09-03T16:11:58;8.25;;;2.85;;
47790;SDS011;33547;49.044;1.156;2022-09-03T16:18:01;11.20;;;3.55;;
47790;SDS011;33547;49.044;1.156;2022-09-03T16:23:24;3.28;;;2.58;;
47790;SDS011;33547;49.044;1.156;2022-09-03T16:26:12;3.00;;;2.70;;
47790;SDS011;33547;49.044;1.156;2022-09-03T16:28:52;4.55;;;2.65;;
47790;SDS011;33547;49.044;1.156;2022-09-03T16:40:17;12.00;;;3.40;;
47790;SDS011;33547;49.044;1.156;2022-09-03T16:46:39;4.72;;;2.60;;
47790;SDS011;33547;49.044;1.156;2022-09-03T17:04:30;3.38;;;2.72;;
47790;SDS011;33547;49.044;1.156;2022-09-03T17:07:49;4.10;;;2.92;;
47790;SDS011;33547;49.044;1.156;2022-09-03T17:11:07;3.88;;;2.90;;
47790;SDS011;33547;49.044;1.156;2022-09-03T17:16:51;3.28;;;2.65;;
47790;SDS011;33547;49.044;1.156;2022-09-03T17:31:47;11.32;;;3.25;;
47790;SDS011;33547;49.044;1.156;2022-09-03T17:37:06;6.80;;;3.05;;
47790;SDS011;33547;49.044;1.156;2022-09-03T17:43:17;5.30;;;2.55;;
47790;SDS011;33547;49.044;1.156;2022-09-03T17:48:52;3.88;;;2.67;;
47790;SDS011;33547;49.044;1.156;2022-09-03T17:56:31;3.72;;;2.85;;
47790;SDS011;33547;49.044;1.156;2022-09-03T18:13:20;3.45;;;3.13;;
47790;SDS011;33547;49.044;1.156;2022-09-03T18:15:59;2.92;;;2.72;;
47790;SDS011;33547;49.044;1.156;2022-09-03T18:18:36;4.28;;;3.15;;
47790;SDS011;33547;49.044;1.156;2022-09-03T18:21:11;3.00;;;2.80;;
47790;SDS011;33547;49.044;1.156;2022-09-03T18:27:04;3.35;;;2.97;;
47790;SDS011;33547;49.044;1.156;2022-09-03T18:32:52;3.15;;;2.95;;
47790;SDS011;33547;49.044;1.156;2022-09-03T18:35:37;3.43;;;3.13;;
47790;SDS011;33547;49.044;1.156;2022-09-03T18:41:14;3.35;;;3.10;;
47790;SDS011;33547;49.044;1.156;2022-09-03T18:44:41;8.50;;;3.10;;
47790;SDS011;33547;49.044;1.156;2022-09-03T18:47:54;3.70;;;3.40;;
47790;SDS011;33547;49.044;1.156;2022-09-03T18:51:07;3.10;;;2.88;;
47790;SDS011;33547;49.044;1.156;2022-09-03T18:54:48;3.75;;;3.40;;
47790;SDS011;33547;49.044;1.156;2022-09-03T18:58:00;3.45;;;3.10;;
47790;SDS011;33547;49.044;1.156;2022-09-03T19:10:53;4.97;;;3.53;;
47790;SDS011;33547;49.044;1.156;2022-09-03T19:13:46;3.22;;;3.03;;
47790;SDS011;33547;49.044;1.156;2022-09-03T19:16:47;4.07;;;3.40;;
47790;SDS011;33547;49.044;1.156;2022-09-03T19:22:49;3.22;;;2.97;;
47790;SDS011;33547;49.044;1.156;2022-09-03T19:25:33;3.75;;;3.47;;
47790;SDS011;33547;49.044;1.156;2022-09-03T19:41:07;5.13;;;3.58;;
47790;SDS011;33547;49.044;1.156;2022-09-03T19:50:36;8.30;;;3.72;;
47790;SDS011;33547;49.044;1.156;2022-09-03T19:53:25;3.67;;;3.38;;
47790;SDS011;33547;49.044;1.156;2022-09-03T19:56:14;4.25;;;3.83;;
47790;SDS011;33547;49.044;1.156;2022-09-03T19:59:18;4.88;;;3.70;;
47790;SDS011;33547;49.044;1.156;2022-09-03T20:02:06;4.20;;;3.80;;
47790;SDS011;33547;49.044;1.156;2022-09-03T20:04:53;5.15;;;4.05;;
47790;SDS011;33547;49.044;1.156;2022-09-03T20:07:49;4.63;;;3.50;;
47790;SDS011;33547;49.044;1.156;2022-09-03T20:10:35;4.05;;;3.75;;
47790;SDS011;33547;49.044;1.156;2022-09-03T20:13:14;3.88;;;3.58;;
47790;SDS011;33547;49.044;1.156;2022-09-03T20:23:57;4.40;;;4.00;;
47790;SDS011;33547;49.044;1.156;2022-09-03T20:27:11;7.07;;;4.25;;
47790;SDS011;33547;49.044;1.156;2022-09-03T20:30:06;6.88;;;4.25;;
47790;SDS011;33547;49.044;1.156;2022-09-03T20:41:23;4.78;;;4.22;;
47790;SDS011;33547;49.044;1.156;2022-09-03T20:44:14;4.63;;;4.20;;
47790;SDS011;33547;49.044;1.156;2022-09-03T20:55:52;5.47;;;4.43;;
47790;SDS011;33547;49.044;1.156;2022-09-03T21:01:56;4.70;;;4.28;;
47790;SDS011;33547;49.044;1.156;2022-09-03T21:15:54;5.43;;;3.88;;
47790;SDS011;33547;49.044;1.156;2022-09-03T21:24:51;4.40;;;4.10;;
47790;SDS011;33547;49.044;1.156;2022-09-03T21:27:25;4.70;;;4.40;;
47790;SDS011;33547;49.044;1.156;2022-09-03T21:30:08;5.63;;;4.15;;
47790;SDS011;33547;49.044;1.156;2022-09-03T21:32:43;4.63;;;4.25;;
47790;SDS011;33547;49.044;1.156;2022-09-03T21:35:46;4.60;;;4.20;;
47790;SDS011;33547;49.044;1.156;2022-09-03T21:38:44;4.25;;;3.95;;
47790;SDS011;33547;49.044;1.156;2022-09-03T21:44:11;4.97;;;4.57;;
47790;SDS011;33547;49.044;1.156;2022-09-03T21:47:08;4.50;;;4.07;;
47790;SDS011;33547;49.044;1.156;2022-09-03T21:49:37;4.93;;;4.53;;
47790;SDS011;33547;49.044;1.156;2022-09-03T21:52:51;4.70;;;4.30;;
47790;SDS011;33547;49.044;1.156;2022-09-03T21:55:29;5.65;;;4.22;;
47790;SDS011;33547;49.044;1.156;2022-09-03T22:01:21;5.90;;;4.18;;
47790;SDS011;33547;49.044;1.156;2022-09-03T22:04:07;5.50;;;3.78;;
47790;SDS011;33547;49.044;1.156;2022-09-03T22:09:19;4.82;;;4.43;;
47790;SDS011;33547;49.044;1.156;2022-09-03T22:12:26;5.20;;;4.72;;
47790;SDS011;33547;49.044;1.156;2022-09-03T22:15:03;4.50;;;4.10;;
47790;SDS011;33547;49.044;1.156;2022-09-03T22:17:43;4.55;;;4.13;;
47790;SDS011;33547;49.044;1.156;2022-09-03T22:20:39;4.07;;;3.70;;
47790;SDS011;33547;49.044;1.156;2022-09-03T22:23:17;4.78;;;4.38;;
47790;SDS011;33547;49.044;1.156;2022-09-03T22:49:24;4.15;;;3.75;;
47790;SDS011;33547;49.044;1.156;2022-09-03T22:54:58;3.65;;;3.35;;
47790;SDS011;33547;49.044;1.156;2022-09-03T22:58:23;4.82;;;3.60;;
47790;SDS011;33547;49.044;1.156;2022-09-03T23:00:30;4.18;;;3.78;;
47790;SDS011;33547;49.044;1.156;2022-09-03T23:03:09;4.60;;;4.30;;
47790;SDS011;33547;49.044;1.156;2022-09-03T23:06:04;3.72;;;3.42;;
47790;SDS011;33547;49.044;1.156;2022-09-03T23:08:38;3.95;;;3.65;;
47790;SDS011;33547;49.044;1.156;2022-09-03T23:11:17;4.35;;;3.63;;
47790;SDS011;33547;49.044;1.156;2022-09-03T23:14:07;3.90;;;3.70;;
47790;SDS011;33547;49.044;1.156;2022-09-03T23:16:40;3.83;;;3.53;;